Time;durP1;ratioP1;P1;durP2;ratioP2;P2;SDS_P1;SDS_P2;PMS_P1;PMS_P2;Temp;Humidity;BMP_temperature;BMP_pressure;BME280_temperature;BME280_humidity;BME280_pressure;Samples;Min_cycle;Max_cycle;Signal;HPM_P1;HPM_P2
2023/05/22 00:03:32;;;;;;;3.53;2.17;;;17.10;94.70;;;15.72;75.06;100063.16;10511816;27;96600;-90
2023/05/22 00:08:35;;;;;;;42.33;5.07;;;16.90;95.00;;;15.56;76.04;100071.53;10492076;27;97450;-92
2023/05/22 00:13:38;;;;;;;4.47;2.78;;;16.80;95.40;;;15.53;76.51;100078.97;10507209;27;96873;-93
2023/05/22 00:18:41;;;;;;;3.28;2.50;;;16.80;95.70;;;15.48;75.49;100084.09;10467980;27;96549;-93
2023/05/22 00:23:45;;;;;;;3.42;2.40;;;16.70;95.80;;;15.42;76.22;100081.41;10476378;27;96803;-92
2023/05/22 00:28:48;;;;;;;3.63;2.53;;;16.70;96.20;;;15.33;77.13;100080.75;10502183;27;96427;-92
2023/05/22 00:33:51;;;;;;;6.28;4.43;;;16.60;96.40;;;15.23;78.40;100075.81;10506774;27;96534;-93
2023/05/22 00:38:54;;;;;;;5.05;2.50;;;16.40;96.70;;;15.20;79.00;100078.88;10489612;27;96746;-90
2023/05/22 00:43:58;;;;;;;7.93;2.70;;;16.40;97.20;;;15.11;79.31;100072.03;10472666;27;96564;-90
2023/05/22 00:49:01;;;;;;;5.53;2.55;;;16.30;97.50;;;15.09;79.33;100068.72;10458502;27;96776;-89
2023/05/22 00:54:05;;;;;;;5.40;2.38;;;16.30;97.70;;;15.01;79.68;100071.59;10448716;27;96417;-90
2023/05/22 00:59:08;;;;;;;3.30;2.60;;;16.30;98.00;;;14.96;80.53;100072.19;10451814;27;97400;-90
2023/05/22 01:04:11;;;;;;;4.22;2.67;;;16.20;98.50;;;14.85;81.15;100066.56;10445339;27;96811;-90
2023/05/22 01:09:14;;;;;;;3.47;2.83;;;16.10;99.30;;;14.76;81.80;100075.81;10475192;27;96449;-89
2023/05/22 01:14:35;;;;;;;4.53;2.83;;;16.00;99.80;;;14.75;82.39;100068.78;10449132;27;96743;-90
2023/05/22 01:20:35;;;;;;;2.85;2.20;;;16.00;99.90;;;14.78;82.91;100071.06;10460662;27;96672;-93
2023/05/22 01:26:26;;;;;;;3.10;2.13;;;15.90;99.90;;;14.76;82.82;100073.94;10504630;27;96664;-90
2023/05/22 01:31:35;;;;;;;10.63;2.95;;;16.00;99.90;;;14.72;82.77;100062.81;10485153;27;96730;-91
2023/05/22 01:36:40;;;;;;;4.13;2.20;;;15.90;99.90;;;14.69;82.98;100057.88;10456134;27;96855;-91
2023/05/22 01:41:44;;;;;;;6.90;3.00;;;16.00;99.90;;;14.68;83.03;100055.38;10472110;27;96802;-90
2023/05/22 01:46:47;;;;;;;3.40;2.65;;;15.90;99.90;;;14.56;83.26;100049.75;10455942;27;96865;-91
2023/05/22 01:51:57;;;;;;;5.93;2.85;;;15.80;99.90;;;14.57;83.81;100053.25;10478846;27;96714;-91
2023/05/22 01:57:03;;;;;;;3.57;2.90;;;15.80;99.90;;;14.56;84.00;100057.78;10447504;27;96976;-89
2023/05/22 02:02:10;;;;;;;3.25;2.40;;;15.80;99.90;;;14.47;83.62;100061.66;10464739;27;96736;-89
2023/05/22 02:07:15;;;;;;;4.95;3.15;;;15.80;99.90;;;14.39;84.51;100054.59;10429858;27;96583;-89
2023/05/22 02:12:20;;;;;;;4.97;3.13;;;15.60;99.90;;;14.32;85.07;100055.53;10486515;27;96720;-89
2023/05/22 02:17:23;;;;;;;9.48;3.42;;;15.60;99.90;;;14.22;85.07;100047.06;10490012;27;96816;-89
2023/05/22 02:22:26;;;;;;;3.83;2.83;;;15.50;99.90;;;14.07;85.29;100042.63;10524097;27;96548;-89
2023/05/22 02:27:29;;;;;;;6.13;3.63;;;15.30;99.90;;;13.99;85.88;100053.47;10491219;27;96617;-89
2023/05/22 02:32:33;;;;;;;4.93;2.88;;;15.20;99.90;;;13.80;86.08;100046.13;10496028;27;97990;-90
2023/05/22 02:37:37;;;;;;;4.15;2.70;;;15.10;99.90;;;13.75;86.57;100043.19;10520565;27;98438;-89
2023/05/22 02:42:40;;;;;;;6.43;4.20;;;15.00;99.90;;;13.62;87.38;100041.25;10480887;27;96753;-88
2023/05/22 02:47:43;;;;;;;5.37;2.90;;;14.90;99.90;;;13.57;87.86;100046.31;10473498;27;96923;-91
2023/05/22 02:52:46;;;;;;;4.05;3.28;;;14.80;99.90;;;13.47;88.03;100041.28;10492091;27;96620;-92
2023/05/22 02:57:49;;;;;;;8.47;3.73;;;14.80;99.90;;;13.44;88.65;100046.19;10515626;27;96550;-91
2023/05/22 03:02:52;;;;;;;6.10;4.43;;;14.70;99.90;;;13.34;88.79;100041.97;10483277;27;96890;-95
2023/05/22 03:07:56;;;;;;;7.00;3.47;;;14.60;99.90;;;13.35;89.29;100051.63;10504580;27;97189;-89
2023/05/22 03:12:59;;;;;;;3.80;2.70;;;14.50;99.90;;;13.34;89.36;100046.50;10495443;27;96572;-89
2023/05/22 03:18:02;;;;;;;6.63;2.87;;;14.60;99.90;;;13.29;89.52;100049.72;10486733;27;96648;-90
2023/05/22 03:23:05;;;;;;;3.53;2.73;;;14.50;99.90;;;13.25;89.79;100045.78;10488626;27;96633;-90
2023/05/22 03:28:08;;;;;;;6.90;3.13;;;14.50;99.90;;;13.22;89.93;100045.34;10484258;27;96599;-90
2023/05/22 03:33:11;;;;;;;5.23;2.73;;;14.50;99.90;;;13.21;90.27;100043.69;10529509;27;98350;-90
2023/05/22 03:38:14;;;;;;;4.23;2.73;;;14.50;99.90;;;13.23;90.45;100044.31;10477169;27;96388;-90
2023/05/22 03:43:17;;;;;;;6.70;3.20;;;14.50;99.90;;;13.26;90.89;100043.97;10478415;27;96566;-91
2023/05/22 03:48:20;;;;;;;5.73;3.70;;;14.50;99.90;;;13.27;91.30;100045.59;10513996;27;96811;-91
2023/05/22 03:53:23;;;;;;;6.47;2.80;;;14.50;99.90;;;13.30;91.45;100030.03;10490901;27;96627;-92
2023/05/22 03:58:26;;;;;;;5.07;2.77;;;14.50;99.90;;;13.44;91.69;100028.34;10478387;27;96672;-92
2023/05/22 04:03:29;;;;;;;6.83;3.30;;;14.60;99.90;;;13.55;92.16;100043.00;10482561;27;97127;-90
2023/05/22 04:08:33;;;;;;;4.57;3.10;;;14.70;99.90;;;13.74;92.77;100034.38;10498943;27;97384;-90
2023/05/22 04:13:36;;;;;;;4.40;2.65;;;14.90;99.90;;;13.91;92.97;100032.22;10492080;27;96614;-91
2023/05/22 04:18:39;;;;;;;78.27;6.73;;;15.10;99.90;;;14.11;93.15;100035.88;10510002;27;97306;-90
2023/05/22 04:23:43;;;;;;;8.00;2.73;;;15.30;99.90;;;14.32;92.75;100042.19;10490046;27;96638;-90
2023/05/22 04:28:46;;;;;;;5.93;3.08;;;15.50;99.90;;;14.54;92.07;100038.44;10486978;27;96729;-90
2023/05/22 04:33:49;;;;;;;4.22;2.42;;;15.70;99.90;;;14.79;91.81;100036.09;10482226;27;98238;-90
2023/05/22 04:38:53;;;;;;;4.72;3.00;;;16.00;99.90;;;15.01;91.51;100033.31;10501690;27;97025;-90
2023/05/22 04:43:57;;;;;;;2.88;2.10;;;16.20;99.90;;;15.18;90.67;100031.94;10496754;27;96612;-90
2023/05/22 04:49:00;;;;;;;5.57;2.75;;;16.40;99.90;;;15.34;89.40;100020.00;10491555;27;96641;-89
2023/05/22 04:54:04;;;;;;;5.32;3.03;;;16.60;99.90;;;15.50;88.41;100012.41;10504014;27;96608;-89
2023/05/22 04:59:07;;;;;;;6.47;2.92;;;16.70;99.90;;;15.60;88.13;100005.84;10489703;27;96573;-86
2023/05/22 05:04:11;;;;;;;7.50;3.08;;;16.80;99.90;;;15.78;88.50;100014.94;10497464;27;97240;-88
2023/05/22 05:09:14;;;;;;;25.73;5.43;;;17.00;99.90;;;15.99;89.27;100016.56;10474701;27;97409;-87
2023/05/22 05:14:18;;;;;;;11.98;2.80;;;17.20;99.90;;;16.22;89.80;100016.13;10502566;27;97881;-88
2023/05/22 05:19:21;;;;;;;7.82;2.78;;;17.50;99.90;;;16.50;90.25;100017.72;10469817;27;98176;-93
2023/05/22 05:24:25;;;;;;;6.30;2.70;;;17.70;99.90;;;16.75;88.12;100004.47;10500016;27;96876;-95
2023/05/22 05:29:28;;;;;;;7.90;2.30;;;18.00;99.90;;;17.09;85.36;100017.53;10482764;27;96597;-90
2023/05/22 05:34:32;;;;;;;22.33;2.90;;;18.40;99.90;;;17.39;83.07;100023.13;10506870;27;96572;-90
2023/05/22 05:39:35;;;;;;;10.38;2.28;;;18.70;99.90;;;17.59;76.78;100038.28;10455490;27;96623;-89
2023/05/22 05:44:38;;;;;;;6.47;2.58;;;18.90;99.90;;;17.72;74.09;100040.91;10466077;27;97323;-91
2023/05/22 05:49:41;;;;;;;14.13;2.50;;;19.00;99.90;;;17.78;71.16;100042.72;10468720;27;97075;-89
2023/05/22 05:54:46;;;;;;;5.60;2.53;;;19.10;99.90;;;17.83;69.84;100048.25;10480655;27;96719;-90
2023/05/22 05:59:49;;;;;;;6.95;2.70;;;19.20;99.90;;;17.79;68.96;100038.97;10513919;27;97045;-89
2023/05/22 06:04:52;;;;;;;5.60;2.63;;;19.10;99.90;;;17.80;69.48;100048.69;10523345;27;96909;-88
2023/05/22 06:09:55;;;;;;;7.05;2.40;;;19.10;99.90;;;17.82;69.56;100051.19;10528232;27;98154;-89
2023/05/22 06:14:58;;;;;;;5.35;2.42;;;19.20;99.90;;;17.86;69.86;100042.44;10513206;27;96627;-90
2023/05/22 06:20:05;;;;;;;19.85;3.80;;;19.20;99.70;;;17.96;69.71;100057.25;10470708;27;96922;-90
2023/05/22 06:25:09;;;;;;;8.82;2.60;;;19.30;99.50;;;18.01;68.74;100054.75;10471921;27;96493;-91
2023/05/22 06:30:12;;;;;;;3.53;2.47;;;19.40;99.30;;;18.12;69.27;100059.41;10498308;27;96956;-91
2023/05/22 06:35:17;;;;;;;4.68;2.30;;;19.40;98.90;;;18.13;67.67;100056.50;10504856;27;96756;-90
2023/05/22 06:40:21;;;;;;;3.15;2.28;;;19.40;98.50;;;18.08;68.38;100059.00;10512273;27;97060;-90
2023/05/22 06:45:24;;;;;;;5.88;2.10;;;19.40;98.60;;;18.09;69.12;100059.84;10482873;27;96729;-90
2023/05/22 06:50:28;;;;;;;10.48;2.10;;;19.40;98.60;;;18.15;69.58;100051.69;10485692;27;96632;-91
2023/05/22 06:55:31;;;;;;;5.70;2.30;;;19.50;98.60;;;18.34;67.35;100057.13;10483559;27;97364;-90
2023/05/22 07:00:35;;;;;;;2.70;1.77;;;19.60;98.10;;;18.58;65.40;100053.53;10478529;27;96684;-94
2023/05/22 07:05:38;;;;;;;4.22;2.20;;;19.90;97.50;;;18.83;63.17;100047.28;10510684;27;97253;-93
2023/05/22 07:10:41;;;;;;;4.78;2.25;;;20.20;96.50;;;19.13;63.04;100039.25;10513612;27;96589;-92
2023/05/22 07:15:45;;;;;;;5.22;1.92;;;20.40;96.20;;;19.39;61.15;100028.13;10491624;27;97431;-92
2023/05/22 07:20:48;;;;;;;7.50;2.17;;;20.70;95.10;;;19.61;59.83;100033.84;10515587;27;97267;-92
2023/05/22 07:25:51;;;;;;;3.88;1.77;;;21.00;94.40;;;19.83;57.72;100034.09;10520723;27;96446;-93
2023/05/22 07:30:54;;;;;;;5.45;2.10;;;21.20;93.30;;;20.14;54.92;100042.91;10492655;27;97621;-94
2023/05/22 07:35:57;;;;;;;2.75;1.67;;;21.40;91.80;;;20.42;53.46;100036.81;10495696;27;96561;-89
2023/05/22 07:41:03;;;;;;;3.63;1.42;;;21.70;90.30;;;20.67;50.90;100033.88;10481814;27;97305;-91
2023/05/22 07:46:08;;;;;;;3.30;1.85;;;22.00;87.20;;;20.90;47.21;100023.03;10478507;27;98422;-92
2023/05/22 07:51:12;;;;;;;5.78;1.90;;;22.20;83.50;;;21.12;46.28;100028.59;10503728;27;96523;-90
2023/05/22 07:56:16;;;;;;;5.18;2.08;;;22.50;79.50;;;21.28;46.38;100030.50;10514658;27;96717;-93
2023/05/22 08:01:19;;;;;;;3.25;1.92;;;22.60;77.90;;;21.47;46.58;100031.16;10498173;27;96558;-91
2023/05/22 08:06:22;;;;;;;4.00;2.47;;;22.80;76.50;;;21.45;46.70;100021.63;10507803;27;96585;-91
2023/05/22 08:11:25;;;;;;;3.28;1.90;;;22.80;76.40;;;21.28;47.49;100024.28;10513907;27;96796;-91
2023/05/22 08:16:29;;;;;;;3.40;1.90;;;22.60;76.00;;;21.29;47.82;100021.38;10514745;27;96987;-92
2023/05/22 08:21:39;;;;;;;3.63;1.52;;;22.60;76.40;;;21.45;47.17;100022.47;10503403;27;97521;-91
2023/05/22 08:26:42;;;;;;;5.05;2.10;;;22.80;75.80;;;21.54;46.05;100021.00;10501790;27;98358;-90
2023/05/22 08:31:45;;;;;;;7.72;2.10;;;22.80;74.20;;;21.66;45.77;100017.41;10478787;27;97430;-85
2023/05/22 08:36:48;;;;;;;3.55;2.08;;;22.90;73.80;;;21.76;45.73;100031.09;10475127;27;97260;-85
2023/05/22 08:41:52;;;;;;;2.85;1.70;;;23.00;72.50;;;21.83;45.77;100029.03;10492975;27;96642;-85
2023/05/22 08:46:58;;;;;;;5.22;2.17;;;23.10;72.40;;;21.76;46.14;100021.09;10491639;27;96683;-86
2023/05/22 08:52:16;;;;;;;3.17;1.75;;;23.10;72.20;;;21.84;46.10;100022.59;10513611;27;96632;-85
2023/05/22 08:57:20;;;;;;;5.57;2.10;;;23.00;72.30;;;21.89;45.22;100019.94;10515299;27;96686;-85
2023/05/22 09:02:24;;;;;;;3.20;1.70;;;23.10;71.70;;;22.06;45.58;100009.94;10487083;27;97444;-87
2023/05/22 09:07:28;;;;;;;4.57;1.98;;;23.30;71.20;;;22.20;45.98;100017.75;10511257;27;96482;-86
2023/05/22 09:12:32;;;;;;;10.43;2.20;;;23.40;71.40;;;22.39;45.16;100016.41;10451452;27;97057;-85
2023/05/22 09:17:41;;;;;;;4.55;2.38;;;23.60;71.20;;;22.62;44.26;100001.81;10454108;27;96672;-85
2023/05/22 09:22:46;;;;;;;3.60;1.67;;;23.90;70.00;;;22.85;44.83;100000.69;10474874;27;96676;-85
2023/05/22 09:27:50;;;;;;;3.15;1.80;;;24.10;69.80;;;22.96;45.17;99997.88;10431755;27;96818;-86
2023/05/22 09:32:55;;;;;;;4.63;1.98;;;24.20;70.20;;;23.11;44.18;99993.72;10427472;27;97034;-86
2023/05/22 09:37:59;;;;;;;6.28;1.98;;;24.30;69.20;;;23.30;44.04;99996.91;10441132;27;98108;-88
2023/05/22 09:43:07;;;;;;;4.40;1.83;;;24.50;68.50;;;23.31;43.61;99990.38;10450736;27;97018;-88
2023/05/22 09:48:11;;;;;;;3.35;1.83;;;24.60;67.40;;;23.46;42.51;99982.41;10430031;27;97881;-90
2023/05/22 09:53:17;;;;;;;4.10;2.17;;;24.70;67.00;;;23.72;43.75;99965.28;10428530;27;96786;-88
2023/05/22 09:58:25;;;;;;;5.88;2.10;;;25.00;67.50;;;24.07;42.41;99968.50;10444124;27;96560;-90
2023/05/22 10:03:30;;;;;;;5.90;2.13;;;25.30;66.60;;;24.21;41.19;99965.06;10446982;27;97371;-89
2023/05/22 10:08:42;;;;;;;2.92;1.90;;;25.50;65.30;;;24.39;41.96;99960.28;10468410;27;98094;-90
2023/05/22 10:13:46;;;;;;;3.38;1.90;;;25.60;65.10;;;24.52;39.02;99960.59;10454349;27;96529;-89
2023/05/22 10:18:52;;;;;;;4.30;2.17;;;25.80;63.80;;;24.70;40.51;99962.03;10461810;27;96586;-89
2023/05/22 10:23:58;;;;;;;4.82;1.85;;;25.90;63.70;;;24.78;39.21;99949.84;10448756;27;96511;-88
2023/05/22 10:29:11;;;;;;;6.22;1.90;;;26.00;62.40;;;24.92;40.21;99947.44;10457745;27;96560;-88
2023/05/22 10:34:31;;;;;;;9.95;2.15;;;26.10;62.90;;;25.04;41.20;99945.28;10456633;27;98421;-91
2023/05/22 10:39:52;;;;;;;4.00;2.35;;;26.30;63.80;;;25.23;40.22;99935.53;10449590;27;96633;-90
2023/05/22 10:44:55;;;;;;;3.55;1.95;;;26.50;63.30;;;25.38;40.84;99939.38;10468078;27;97835;-94
2023/05/22 10:50:10;;;;;;;3.53;2.03;;;26.60;63.10;;;25.38;39.12;99928.50;10438754;27;96709;-93
2023/05/22 10:55:13;;;;;;;4.10;2.03;;;26.80;61.40;;;25.49;38.00;99928.22;10433393;27;96997;-90
2023/05/22 11:00:18;;;;;;;4.43;2.17;;;26.70;60.90;;;25.49;39.50;99921.94;10499522;27;96853;-92
2023/05/22 11:05:21;;;;;;;6.38;2.05;;;26.80;61.10;;;25.58;39.68;99923.84;10471431;27;97006;-92
2023/05/22 11:10:54;;;;;;;3.40;2.05;;;26.80;60.90;;;25.74;39.06;99905.63;10472517;22;98406;-87
2023/05/22 11:15:58;;;;;;;4.28;2.10;;;26.90;60.70;;;25.74;38.92;99905.63;10302384;28;97331;-87
2023/05/22 11:21:02;;;;;;;5.45;2.08;;;27.00;60.30;;;25.77;38.54;99890.66;10323903;28;96661;-88
2023/05/22 11:26:22;;;;;;;6.32;2.45;;;27.00;59.70;;;25.92;39.19;99884.38;10324650;28;96607;-87
2023/05/22 11:31:29;;;;;;;4.03;1.90;;;27.20;60.40;;;26.02;38.42;99884.31;10310119;28;96533;-86
2023/05/22 11:36:33;;;;;;;3.95;2.30;;;27.30;60.00;;;26.09;38.87;99879.41;10323890;28;96621;-87
2023/05/22 11:41:36;;;;;;;4.60;2.20;;;27.40;59.70;;;26.25;39.54;99872.78;10316939;28;97613;-87
2023/05/22 11:46:40;;;;;;;4.55;2.30;;;27.50;60.40;;;26.40;38.82;99874.63;10312928;28;96785;-87
2023/05/22 11:51:44;;;;;;;3.90;1.95;;;27.70;60.00;;;26.37;37.58;99867.81;10296708;28;98311;-87
2023/05/22 11:56:47;;;;;;;5.15;2.40;;;27.80;58.90;;;26.46;39.48;99864.56;10323970;28;96748;-87
2023/05/22 12:01:51;;;;;;;3.67;2.42;;;27.80;59.60;;;26.73;39.44;99867.66;10284967;28;96922;-88
2023/05/22 12:06:55;;;;;;;4.35;2.00;;;28.00;60.00;;;26.91;38.75;99856.06;10275506;28;96510;-88
2023/05/22 12:11:58;;;;;;;4.03;2.45;;;28.20;59.70;;;27.06;38.57;99851.66;10308992;28;97103;-87
2023/05/22 12:17:05;;;;;;;5.50;2.00;;;28.30;59.60;;;27.13;37.39;99854.84;10354741;28;96587;-88
2023/05/22 12:22:09;;;;;;;8.82;2.30;;;28.40;58.70;;;27.12;37.64;99853.22;10295022;28;96639;-87
2023/05/22 12:27:13;;;;;;;4.90;2.33;;;28.50;58.40;;;26.90;37.49;99840.81;10323022;28;96694;-87
2023/05/22 12:32:21;;;;;;;8.07;2.17;;;28.40;57.90;;;27.00;37.46;99839.94;10315731;28;97190;-87
2023/05/22 12:37:24;;;;;;;4.13;2.53;;;28.50;57.90;;;26.94;36.91;99838.34;10323608;28;97063;-86
2023/05/22 12:42:28;;;;;;;4.80;2.40;;;28.50;57.20;;;27.12;38.18;99829.50;10322092;28;96748;-87
2023/05/22 12:47:31;;;;;;;7.90;2.58;;;28.50;58.00;;;27.41;37.60;99815.84;10317304;28;97205;-88
2023/05/22 12:52:35;;;;;;;8.27;2.20;;;28.80;57.80;;;27.70;37.65;99806.81;10322672;28;96513;-86
2023/05/22 12:57:38;;;;;;;5.70;2.25;;;29.10;57.90;;;27.95;37.29;99798.34;10338513;28;97554;-87
2023/05/22 13:02:41;;;;;;;4.10;2.28;;;29.40;57.70;;;28.18;36.54;99785.72;10312290;28;97286;-87
2023/05/22 13:07:44;;;;;;;4.35;2.20;;;29.50;57.20;;;27.95;36.80;99795.63;10338005;28;96582;-87
2023/05/22 13:12:49;;;;;;;4.13;2.15;;;29.30;56.70;;;27.94;37.25;99790.44;10304483;28;96742;-86
2023/05/22 13:17:53;;;;;;;3.83;2.10;;;29.20;57.20;;;27.99;36.04;99785.72;10305943;28;98131;-87
2023/05/22 13:22:56;;;;;;;5.97;2.40;;;29.20;56.70;;;28.09;36.20;99794.88;10287020;28;96935;-87
2023/05/22 13:28:00;;;;;;;5.70;2.28;;;29.20;56.70;;;28.07;35.99;99786.16;10300492;28;96820;-87
2023/05/22 13:33:03;;;;;;;2.97;2.35;;;29.20;56.50;;;28.00;37.38;99778.31;10320599;28;98303;-87
2023/05/22 13:38:06;;;;;;;3.90;2.08;;;29.10;56.90;;;27.91;35.62;99782.84;10302738;28;97188;-87
2023/05/22 13:43:09;;;;;;;3.65;2.20;;;29.00;56.20;;;27.45;36.98;99789.59;10291768;28;98447;-87
2023/05/22 13:48:12;;;;;;;5.03;2.30;;;28.60;56.60;;;27.16;38.06;99777.91;10336211;28;96567;-87
2023/05/22 13:53:16;;;;;;;2.72;2.08;;;28.30;57.20;;;27.20;38.90;99773.50;10304755;28;96525;-87
2023/05/22 13:58:19;;;;;;;3.88;2.25;;;28.30;58.00;;;27.33;38.76;99770.09;10279252;28;96722;-87
2023/05/22 14:03:22;;;;;;;3.90;2.47;;;28.40;58.00;;;27.53;39.92;99769.06;10289469;28;98702;-87
2023/05/22 14:08:25;;;;;;;4.38;2.72;;;28.60;58.60;;;27.64;38.08;99764.28;10324734;28;96591;-87
2023/05/22 14:13:28;;;;;;;5.63;2.50;;;28.80;58.10;;;27.56;38.19;99759.47;10305341;28;97296;-87
2023/05/22 14:18:31;;;;;;;5.68;2.10;;;28.80;58.30;;;27.74;37.79;99751.34;10316268;28;96692;-86
2023/05/22 14:23:34;;;;;;;4.25;2.53;;;29.00;57.70;;;28.07;38.54;99751.50;10292233;28;96761;-87
2023/05/22 14:28:37;;;;;;;7.88;2.25;;;29.40;58.10;;;28.07;37.02;99747.91;10311568;28;98320;-87
2023/05/22 14:33:40;;;;;;;5.32;2.40;;;29.50;56.80;;;28.06;37.79;99751.75;10311472;28;96669;-87
2023/05/22 14:38:44;;;;;;;4.43;2.13;;;29.40;57.10;;;28.07;36.93;99745.19;10310326;28;96434;-87
2023/05/22 14:43:47;;;;;;;3.90;2.50;;;29.70;56.60;;;28.35;37.83;99741.53;10300816;28;98707;-88
2023/05/22 14:48:50;;;;;;;3.65;2.60;;;30.10;56.60;;;28.26;37.65;99740.56;10336582;28;96642;-87
2023/05/22 14:53:53;;;;;;;2.95;1.92;;;30.00;56.50;;;28.37;36.71;99741.22;10311653;28;96852;-87
2023/05/22 14:58:56;;;;;;;6.30;2.40;;;30.30;56.60;;;28.74;37.13;99745.84;10310114;28;99684;-87
2023/05/22 15:04:04;;;;;;;3.20;2.20;;;30.90;56.30;;;29.19;36.33;99737.97;10342024;28;96780;-87
2023/05/22 15:09:07;;;;;;;2.80;2.13;;;31.40;55.50;;;29.49;34.89;99731.06;10327207;28;98305;-87
2023/05/22 15:14:11;;;;;;;5.35;2.40;;;31.70;54.40;;;29.48;35.44;99727.53;10316215;28;96729;-88
2023/05/22 15:19:14;;;;;;;4.80;1.98;;;31.50;54.50;;;29.13;35.38;99723.56;10308729;28;96753;-87
2023/05/22 15:24:17;;;;;;;8.05;2.10;;;30.90;54.60;;;29.11;35.42;99722.25;10307040;28;96609;-88
2023/05/22 15:29:21;;;;;;;3.97;2.17;;;30.90;54.90;;;28.93;35.24;99722.03;10315929;28;96633;-89
2023/05/22 15:34:23;;;;;;;5.97;2.20;;;30.80;54.40;;;28.44;36.32;99720.63;10304996;28;96968;-88
2023/05/22 15:39:26;;;;;;;4.32;2.17;;;30.20;54.50;;;27.97;36.88;99721.59;10308986;28;96548;-87
2023/05/22 15:44:29;;;;;;;5.30;2.10;;;29.60;55.20;;;27.55;38.11;99720.47;10292435;28;96493;-88
2023/05/22 15:49:33;;;;;;;4.85;2.08;;;29.10;55.70;;;27.54;37.89;99715.31;10317944;28;97666;-88
2023/05/22 15:54:36;;;;;;;4.32;2.15;;;29.10;56.30;;;27.86;37.88;99711.91;10324261;28;96642;-88
2023/05/22 15:59:39;;;;;;;4.15;2.03;;;29.50;56.00;;;27.91;38.35;99723.56;10287394;28;96476;-88
2023/05/22 16:04:42;;;;;;;3.65;2.10;;;29.60;55.80;;;27.76;38.77;99729.22;10339028;28;97370;-88
2023/05/22 16:09:45;;;;;;;5.35;1.92;;;29.40;56.30;;;27.43;39.25;99723.59;10307290;28;96462;-89
2023/05/22 16:14:48;;;;;;;3.92;2.03;;;29.00;56.50;;;27.15;40.84;99729.91;10280022;28;97339;-88
2023/05/22 16:19:52;;;;;;;3.88;2.30;;;28.60;57.50;;;26.88;41.18;99727.72;10315001;28;96749;-88
2023/05/22 16:24:55;;;;;;;4.82;2.08;;;28.30;58.30;;;26.55;41.74;99741.06;10308083;28;96438;-88
2023/05/22 16:30:01;;;;;;;5.18;2.67;;;27.90;59.10;;;26.00;41.64;99734.84;10304448;28;96618;-88
2023/05/22 16:35:04;;;;;;;3.65;2.17;;;27.30;59.40;;;25.66;42.44;99747.50;10307783;28;96557;-88
2023/05/22 16:40:08;;;;;;;3.80;2.33;;;26.80;60.00;;;25.37;43.11;99737.28;10305522;28;96530;-88
2023/05/22 16:45:11;;;;;;;3.67;2.25;;;26.40;60.50;;;25.16;44.55;99739.22;10319703;28;96524;-88
2023/05/22 16:50:15;;;;;;;4.00;2.60;;;26.20;61.40;;;24.97;45.00;99746.31;10301365;28;96510;-87
2023/05/22 16:55:18;;;;;;;4.25;2.60;;;26.10;62.10;;;24.76;45.90;99757.16;10304483;28;96479;-88
2023/05/22 17:00:21;;;;;;;6.10;2.60;;;25.80;63.20;;;24.63;47.79;99765.88;10312513;28;96832;-88
2023/05/22 17:05:25;;;;;;;6.18;2.58;;;25.70;64.00;;;24.41;48.36;99768.00;10336779;28;96425;-87
2023/05/22 17:10:28;;;;;;;4.35;2.05;;;25.50;64.60;;;24.19;49.18;99774.47;10305104;28;97403;-87
2023/05/22 17:15:31;;;;;;;4.28;2.45;;;25.40;65.50;;;23.91;50.04;99775.72;10304114;28;96479;-88
2023/05/22 17:20:34;;;;;;;3.03;2.20;;;25.10;66.10;;;23.72;50.45;99780.81;10294701;28;97984;-88
2023/05/22 17:25:37;;;;;;;3.03;2.10;;;25.00;66.50;;;23.54;50.49;99783.13;10273128;28;96561;-87
2023/05/22 17:30:42;;;;;;;7.97;2.20;;;24.80;66.60;;;23.24;50.33;99771.84;10269908;28;96690;-88
2023/05/22 17:35:46;;;;;;;4.88;2.10;;;24.50;66.80;;;23.13;51.08;99782.88;10305719;28;96723;-88
2023/05/22 17:40:50;;;;;;;2.97;2.17;;;24.40;67.40;;;22.92;51.43;99777.31;10302323;28;96581;-88
2023/05/22 17:45:53;;;;;;;7.40;2.30;;;24.20;67.60;;;22.74;52.73;99777.69;10288458;28;97771;-88
2023/05/22 17:50:58;;;;;;;5.03;2.50;;;23.90;68.10;;;22.55;53.57;99773.69;10301944;28;97634;-88
2023/05/22 17:56:01;;;;;;;8.18;2.58;;;23.70;68.80;;;22.26;54.72;99781.28;10320635;28;96507;-87
2023/05/22 18:01:04;;;;;;;7.88;2.72;;;23.50;69.90;;;22.03;55.96;99780.47;10304034;28;96618;-87
2023/05/22 18:06:07;;;;;;;3.05;1.95;;;23.20;70.80;;;21.81;56.12;99785.06;10298331;28;97456;-87
2023/05/22 18:11:10;;;;;;;4.60;2.10;;;23.00;71.30;;;21.64;56.87;99791.31;10292135;28;97421;-88
2023/05/22 18:16:20;;;;;;;4.18;2.05;;;22.90;72.10;;;21.50;57.13;99800.06;10313452;28;96894;-87
2023/05/22 18:21:23;;;;;;;5.95;2.78;;;22.70;72.40;;;21.40;58.06;99800.72;10288138;28;96651;-87
2023/05/22 18:26:26;;;;;;;6.82;2.90;;;22.60;72.80;;;21.31;59.38;99802.22;10308621;28;96609;-87
2023/05/22 18:31:29;;;;;;;5.43;2.80;;;22.50;73.90;;;21.16;59.62;99804.66;10300771;28;98340;-87
2023/05/22 18:36:32;;;;;;;4.68;2.30;;;22.30;74.40;;;20.99;59.55;99804.66;10299684;28;97394;-87
2023/05/22 18:41:36;;;;;;;2.97;2.08;;;22.20;74.70;;;20.81;60.05;99811.09;10329020;28;96976;-87
2023/05/22 18:46:39;;;;;;;4.28;2.45;;;22.00;75.20;;;20.64;60.85;99808.41;10296351;28;97757;-86
2023/05/22 18:51:43;;;;;;;3.50;2.35;;;21.80;75.80;;;20.55;61.59;99820.66;10334592;28;96511;-87
2023/05/22 18:56:46;;;;;;;4.70;2.90;;;21.70;76.40;;;20.41;61.73;99824.69;10310715;28;96587;-87
2023/05/22 19:01:49;;;;;;;5.25;3.28;;;21.60;76.90;;;20.27;63.07;99824.97;10317123;28;96677;-89
2023/05/22 19:06:52;;;;;;;5.88;3.88;;;21.40;77.50;;;20.16;63.56;99833.94;10298359;28;96614;-88
2023/05/22 19:11:55;;;;;;;6.22;3.45;;;21.30;78.20;;;20.02;65.12;99827.16;10310989;28;96702;-88
2023/05/22 19:16:59;;;;;;;8.52;3.38;;;21.20;79.00;;;19.86;66.29;99826.03;10337608;28;98001;-88
2023/05/22 19:22:02;;;;;;;4.22;3.00;;;21.10;80.00;;;19.70;66.59;99841.06;10320136;28;96643;-87
2023/05/22 19:27:05;;;;;;;3.90;2.63;;;20.80;80.70;;;19.43;66.69;99831.75;10301548;28;96911;-88
2023/05/22 19:32:08;;;;;;;3.80;2.75;;;20.70;81.20;;;19.19;66.70;99839.00;10299436;28;96798;-88
2023/05/22 19:37:11;;;;;;;4.97;2.97;;;20.50;81.40;;;19.10;67.02;99846.63;10306582;28;97358;-87
2023/05/22 19:42:14;;;;;;;6.22;3.15;;;20.30;81.80;;;19.04;67.70;99861.03;10317244;28;96549;-88
2023/05/22 19:47:17;;;;;;;4.65;2.92;;;20.20;82.30;;;19.00;68.88;99867.91;10319491;28;96535;-88
2023/05/22 19:52:21;;;;;;;6.20;3.30;;;20.20;83.10;;;18.78;69.54;99864.94;10325399;28;98169;-88
2023/05/22 19:57:25;;;;;;;3.67;2.75;;;20.00;84.30;;;18.58;70.47;99865.19;10284895;28;96542;-89
2023/05/22 20:02:28;;;;;;;4.93;3.13;;;19.80;85.20;;;18.43;71.78;99873.66;10308115;28;96759;-88
2023/05/22 20:07:32;;;;;;;4.32;2.83;;;19.60;86.60;;;18.30;72.38;99863.09;10301741;28;96996;-89
2023/05/22 20:12:36;;;;;;;4.22;2.95;;;19.40;87.50;;;18.18;72.84;99875.66;10296219;28;96833;-88
2023/05/22 20:17:41;;;;;;;4.88;3.15;;;19.30;88.40;;;18.12;73.20;99879.25;10326366;28;96597;-89
2023/05/22 20:22:44;;;;;;;5.35;3.05;;;19.20;88.90;;;18.05;73.33;99862.34;10302929;28;98405;-88
2023/05/22 20:27:47;;;;;;;3.50;2.72;;;19.10;89.40;;;17.99;73.82;99866.75;10316719;28;97478;-88
2023/05/22 20:32:50;;;;;;;6.28;2.80;;;19.10;90.10;;;17.84;74.18;99869.00;10322513;28;96547;-88
2023/05/22 20:37:54;;;;;;;5.35;3.25;;;19.00;90.50;;;17.79;74.38;99863.47;10324046;28;97506;-88
2023/05/22 20:42:57;;;;;;;4.47;2.47;;;18.90;90.80;;;17.78;74.86;99856.44;10322293;28;96648;-88
2023/05/22 20:48:00;;;;;;;6.70;2.85;;;18.90;91.00;;;17.75;75.06;99855.03;10318261;28;97204;-88
2023/05/22 20:53:05;;;;;;;4.75;2.40;;;18.90;91.40;;;17.67;75.77;99868.72;10341949;28;96426;-88
2023/05/22 20:58:08;;;;;;;7.30;3.00;;;18.80;91.80;;;17.55;75.85;99865.94;10307649;28;97711;-89
2023/05/22 21:03:11;;;;;;;6.75;3.75;;;18.60;92.30;;;17.43;75.94;99858.84;10318529;28;97272;-89